createdAt,value
2023-04-14T00:01:23.713Z,52.90
2023-04-14T00:03:50.527Z,54.40
2023-04-14T00:06:17.301Z,60.53
2023-04-14T00:08:43.834Z,55.30
2023-04-14T00:11:10.363Z,59.25
2023-04-14T00:13:37.158Z,64.40
2023-04-14T00:16:03.960Z,67.32
2023-04-14T00:18:30.473Z,59.67
2023-04-14T00:20:56.999Z,67.55
2023-04-14T00:23:23.636Z,60.13
2023-04-14T00:25:50.933Z,69.22
2023-04-14T00:28:17.421Z,83.15
2023-04-14T00:30:46.569Z,84.60
2023-04-14T00:33:13.029Z,90.60
2023-04-14T00:35:39.672Z,94.35
2023-04-14T00:38:06.509Z,105.47
2023-04-14T00:40:33.073Z,105.20
2023-04-14T00:42:59.566Z,109.63
2023-04-14T00:45:27.387Z,115.95
2023-04-14T00:47:54.846Z,136.30
2023-04-14T00:50:23.033Z,150.02
2023-04-14T00:52:52.317Z,142.02
2023-04-14T00:55:22.434Z,150.27
2023-04-14T00:57:49.754Z,128.73
2023-04-14T01:00:16.755Z,155.35
2023-04-14T01:02:43.529Z,153.30
2023-04-14T01:05:11.048Z,183.48
2023-04-14T01:07:38.509Z,163.43
2023-04-14T01:10:05.990Z,145.95
2023-04-14T01:12:39.553Z,142.52
2023-04-14T01:15:26.971Z,150.00
2023-04-14T01:18:12.124Z,155.85
2023-04-14T01:20:44.678Z,166.27
2023-04-14T01:23:16.019Z,172.82
2023-04-14T01:26:02.532Z,211.98
2023-04-14T01:28:55.051Z,169.82
2023-04-14T01:31:26.726Z,167.20
2023-04-14T01:34:28.992Z,176.32
2023-04-14T01:37:18.928Z,172.88
2023-04-14T01:39:55.458Z,184.85
2023-04-14T01:42:27.018Z,186.85
2023-04-14T01:44:58.691Z,170.82
2023-04-14T01:47:26.678Z,176.05
2023-04-14T01:49:55.672Z,158.68
2023-04-14T01:52:23.133Z,164.38
2023-04-14T01:54:53.806Z,154.63
2023-04-14T01:57:22.831Z,163.95
2023-04-14T01:59:52.782Z,149.23
2023-04-14T02:02:21.257Z,136.63
2023-04-14T02:04:49.904Z,158.02
2023-04-14T02:07:21.839Z,156.10
2023-04-14T02:09:50.674Z,164.32
2023-04-14T02:12:21.235Z,177.65
2023-04-14T02:14:51.567Z,157.10
2023-04-14T02:17:21.539Z,166.40
2023-04-14T02:19:49.571Z,165.30
2023-04-14T02:22:16.236Z,150.63
2023-04-14T02:24:42.780Z,168.63
2023-04-14T02:27:13.786Z,146.27
2023-04-14T02:29:45.229Z,162.75
2023-04-14T02:32:22.505Z,149.32
2023-04-14T02:35:12.223Z,141.63
2023-04-14T02:37:42.218Z,161.00
2023-04-14T02:40:16.923Z,149.77
2023-04-14T02:42:48.105Z,156.65
2023-04-14T02:45:21.183Z,137.10
2023-04-14T02:47:55.893Z,139.40
2023-04-14T02:50:25.292Z,128.23
2023-04-14T02:53:04.036Z,130.80
2023-04-14T02:55:36.694Z,128.55
2023-04-14T02:58:03.917Z,126.03
2023-04-14T03:00:38.037Z,131.52
2023-04-14T03:03:06.789Z,138.50
2023-04-14T03:05:35.657Z,133.85
2023-04-14T03:08:14.869Z,125.85
2023-04-14T03:10:46.182Z,136.57
2023-04-14T03:13:15.357Z,135.57
2023-04-14T03:15:42.797Z,147.80
2023-04-14T03:18:12.233Z,137.60
2023-04-14T03:20:40.535Z,120.03
2023-04-14T03:23:11.821Z,118.05
2023-04-14T03:25:46.583Z,119.25
2023-04-14T03:28:22.818Z,125.10
2023-04-14T03:30:54.002Z,106.63
2023-04-14T03:33:29.006Z,109.35
2023-04-14T03:36:01.587Z,105.32
2023-04-14T03:38:30.488Z,103.97
2023-04-14T03:41:06.288Z,100.75
2023-04-14T03:43:33.778Z,93.50
2023-04-14T03:46:07.808Z,79.47
2023-04-14T03:48:39.401Z,76.18
2023-04-14T03:51:09.139Z,76.85
2023-04-14T03:53:38.116Z,80.68
2023-04-14T03:56:06.991Z,80.13
2023-04-14T03:58:34.602Z,86.10
2023-04-14T04:01:02.512Z,78.40
2023-04-14T04:03:30.105Z,91.90
2023-04-14T04:05:58.695Z,85.75
2023-04-14T04:08:26.678Z,96.63
2023-04-14T04:10:54.921Z,81.22
2023-04-14T04:13:24.180Z,87.53
2023-04-14T04:15:51.992Z,86.35
2023-04-14T04:18:20.647Z,88.47
2023-04-14T04:20:48.346Z,82.05
2023-04-14T04:23:18.297Z,79.60
2023-04-14T04:25:45.139Z,84.22
2023-04-14T04:28:20.749Z,77.57
2023-04-14T04:30:48.790Z,81.22
2023-04-14T04:33:16.846Z,81.53
2023-04-14T04:35:44.125Z,78.05
2023-04-14T04:38:11.553Z,76.75
2023-04-14T04:40:41.477Z,74.97
2023-04-14T04:43:18.936Z,76.88
2023-04-14T04:46:04.214Z,79.60
2023-04-14T04:48:31.605Z,82.90
2023-04-14T04:50:58.108Z,72.53
2023-04-14T04:53:24.668Z,71.95
2023-04-14T04:55:51.287Z,78.40
2023-04-14T04:58:18.248Z,70.07
2023-04-14T05:00:44.712Z,72.38
2023-04-14T05:03:11.310Z,76.82
2023-04-14T05:05:37.909Z,87.68
2023-04-14T05:08:05.406Z,68.97
2023-04-14T05:10:35.389Z,78.03
2023-04-14T05:13:02.272Z,88.57
2023-04-14T05:15:28.984Z,80.63
2023-04-14T05:17:55.685Z,76.63
2023-04-14T05:20:22.222Z,93.97
2023-04-14T05:22:48.754Z,90.80
2023-04-14T05:25:15.520Z,88.93
2023-04-14T05:27:42.073Z,80.50
2023-04-14T05:30:09.058Z,85.47
2023-04-14T05:32:35.788Z,86.43
2023-04-14T05:35:02.421Z,83.80
2023-04-14T05:37:30.084Z,84.45
2023-04-14T05:39:56.751Z,86.18
2023-04-14T05:42:23.570Z,77.63
2023-04-14T05:44:50.139Z,81.72
2023-04-14T05:47:17.180Z,81.30
2023-04-14T05:49:43.651Z,81.20
2023-04-14T05:52:10.433Z,66.22
2023-04-14T05:54:37.014Z,84.97
2023-04-14T05:57:03.720Z,67.13
2023-04-14T05:59:30.383Z,69.45
2023-04-14T06:01:57.052Z,71.60
2023-04-14T06:04:23.872Z,75.03
2023-04-14T06:06:50.900Z,66.38
2023-04-14T06:09:17.723Z,64.32
2023-04-14T06:11:44.247Z,75.95
2023-04-14T06:14:10.901Z,81.57
2023-04-14T06:16:37.546Z,70.72
2023-04-14T06:19:04.346Z,67.25
2023-04-14T06:21:31.723Z,81.78
2023-04-14T06:23:58.371Z,64.38
2023-04-14T06:26:25.748Z,61.50
2023-04-14T06:28:52.257Z,61.50
2023-04-14T06:31:18.863Z,66.13
2023-04-14T06:33:45.380Z,65.05
2023-04-14T06:36:13.125Z,65.93
2023-04-14T06:38:39.666Z,60.50
2023-04-14T06:41:06.234Z,65.40
2023-04-14T06:43:33.081Z,65.07
2023-04-14T06:45:59.724Z,66.45
2023-04-14T06:48:27.311Z,72.22
2023-04-14T06:50:55.769Z,57.47
2023-04-14T06:53:23.173Z,57.55
2023-04-14T06:55:51.934Z,58.65
2023-04-14T06:58:18.553Z,60.35
2023-04-14T07:00:45.137Z,60.13
2023-04-14T07:03:11.675Z,51.13
2023-04-14T07:06:00.457Z,60.28
2023-04-14T07:08:32.267Z,59.72
2023-04-14T07:11:04.112Z,53.00
2023-04-14T07:13:30.927Z,54.22
2023-04-14T07:15:57.821Z,50.45
2023-04-14T07:18:24.695Z,51.00
2023-04-14T07:20:52.580Z,52.72
2023-04-14T07:23:19.097Z,52.50
2023-04-14T07:25:51.252Z,55.88
2023-04-14T07:28:19.571Z,53.08
2023-04-14T07:30:46.265Z,49.42
2023-04-14T07:33:20.232Z,44.83
2023-04-14T07:36:01.950Z,41.33
2023-04-14T07:38:29.223Z,42.03
2023-04-14T07:40:55.764Z,49.40
2023-04-14T07:43:23.138Z,39.35
2023-04-14T07:45:49.790Z,46.25
2023-04-14T07:48:19.419Z,33.60
2023-04-14T07:50:48.297Z,36.42
2023-04-14T07:53:14.941Z,29.67
2023-04-14T07:55:41.883Z,31.00
2023-04-14T07:58:08.392Z,30.00
2023-04-14T08:00:34.918Z,34.00
2023-04-14T08:03:02.674Z,25.48
2023-04-14T08:05:29.458Z,25.42
2023-04-14T08:07:56.270Z,29.00
2023-04-14T08:10:22.769Z,23.98
2023-04-14T08:12:49.270Z,26.40
2023-04-14T08:15:15.852Z,30.38
2023-04-14T08:17:42.399Z,34.10
2023-04-14T08:20:09.191Z,25.33
2023-04-14T08:22:35.970Z,23.80
2023-04-14T08:25:02.509Z,22.35
2023-04-14T08:27:29.236Z,36.65
2023-04-14T08:29:55.842Z,34.15
2023-04-14T08:32:22.408Z,27.33
2023-04-14T08:35:37.200Z,25.73
2023-04-14T08:37:35.965Z,22.35
2023-04-14T08:40:02.627Z,27.20
2023-04-14T08:42:29.495Z,30.05
2023-04-14T08:44:56.079Z,31.33
2023-04-14T08:47:22.985Z,27.13
2023-04-14T08:49:56.902Z,31.90
2023-04-14T08:52:27.591Z,28.23
2023-04-14T08:54:56.980Z,27.08
2023-04-14T08:57:26.603Z,25.00
2023-04-14T08:59:56.817Z,29.50
2023-04-14T09:02:24.648Z,32.03
2023-04-14T09:04:52.530Z,21.67
2023-04-14T09:07:20.749Z,29.58
2023-04-14T09:09:47.594Z,23.60
2023-04-14T09:12:16.694Z,26.15
2023-04-14T09:14:44.659Z,23.17
2023-04-14T09:17:11.717Z,19.77
2023-04-14T09:20:38.078Z,22.50
2023-04-14T09:22:28.418Z,20.20
2023-04-14T09:24:57.208Z,16.05
2023-04-14T09:27:23.783Z,22.02
2023-04-14T09:29:51.507Z,18.52
2023-04-14T09:32:18.583Z,19.17
2023-04-14T09:34:53.441Z,16.55
2023-04-14T09:37:21.519Z,20.35
2023-04-14T09:39:51.054Z,20.83
2023-04-14T09:42:18.712Z,20.42
2023-04-14T09:44:58.987Z,23.70
2023-04-14T09:47:26.385Z,13.40
2023-04-14T09:49:58.006Z,13.73
2023-04-14T09:52:42.459Z,20.58
2023-04-14T09:55:14.291Z,11.80
2023-04-14T09:57:47.269Z,11.38
2023-04-14T10:00:17.910Z,12.10
2023-04-14T10:02:57.931Z,9.60
2023-04-14T10:05:34.392Z,8.88
2023-04-14T10:08:05.612Z,12.05
2023-04-14T10:10:35.413Z,7.60
2023-04-14T10:13:02.142Z,10.48
2023-04-14T10:15:28.975Z,7.15
2023-04-14T10:17:56.393Z,19.40
2023-04-14T10:20:23.237Z,12.02
2023-04-14T10:22:50.631Z,10.77
2023-04-14T10:25:18.197Z,8.20
2023-04-14T10:27:45.463Z,8.80
2023-04-14T10:30:12.382Z,11.07
2023-04-14T10:32:40.606Z,6.82
2023-04-14T10:35:10.213Z,7.13
2023-04-14T10:37:37.200Z,9.65
2023-04-14T10:40:07.137Z,6.68
2023-04-14T10:42:54.481Z,7.43
2023-04-14T10:45:21.712Z,7.35
2023-04-14T10:47:49.957Z,8.38
2023-04-14T10:50:18.605Z,6.88
2023-04-14T10:52:55.812Z,11.48
2023-04-14T10:55:24.596Z,8.63
2023-04-14T10:57:54.390Z,10.93
2023-04-14T11:00:23.261Z,5.47
2023-04-14T11:03:10.625Z,7.45
2023-04-14T11:05:52.840Z,6.70
2023-04-14T11:08:26.617Z,5.65
2023-04-14T11:11:03.538Z,9.23
2023-04-14T11:13:31.402Z,7.85
2023-04-14T11:16:01.523Z,9.07
2023-04-14T11:18:31.624Z,8.27
2023-04-14T11:21:06.394Z,7.93
2023-04-14T11:23:34.719Z,12.95
2023-04-14T11:26:01.937Z,8.68
2023-04-14T11:28:33.139Z,9.13
2023-04-14T11:31:01.350Z,6.33
2023-04-14T11:33:32.171Z,4.45
2023-04-14T11:35:59.067Z,6.88
2023-04-14T11:38:25.876Z,6.05
2023-04-14T11:40:52.487Z,9.10
2023-04-14T11:43:22.184Z,10.70
2023-04-14T11:45:50.923Z,6.35
2023-04-14T11:48:19.794Z,5.88
2023-04-14T11:50:47.819Z,9.25
2023-04-14T11:53:18.747Z,5.82
2023-04-14T11:55:49.146Z,6.50
2023-04-14T11:58:21.548Z,9.10
2023-04-14T12:00:49.905Z,5.70
2023-04-14T12:03:17.078Z,8.65
2023-04-14T12:05:44.914Z,5.15
2023-04-14T12:08:12.622Z,10.93
2023-04-14T12:10:42.000Z,8.68
2023-04-14T12:13:10.404Z,7.68
2023-04-14T12:15:39.334Z,8.55
2023-04-14T12:18:11.499Z,7.03
2023-04-14T12:21:02.065Z,10.35
2023-04-14T12:23:28.716Z,10.73
2023-04-14T12:25:55.333Z,9.77
2023-04-14T12:28:34.544Z,6.93
2023-04-14T12:31:04.013Z,7.03
2023-04-14T12:33:33.699Z,8.20
2023-04-14T12:36:04.770Z,9.13
2023-04-14T12:38:32.011Z,6.07
2023-04-14T12:40:58.560Z,5.72
2023-04-14T12:43:31.378Z,8.52
2023-04-14T12:45:58.780Z,8.88
2023-04-14T12:48:57.785Z,9.05
2023-04-14T12:51:24.343Z,15.32
2023-04-14T12:53:51.376Z,8.15
2023-04-14T12:56:24.069Z,9.82
2023-04-14T12:58:51.629Z,6.88
2023-04-14T13:01:20.079Z,8.65
2023-04-14T13:03:51.587Z,9.50
2023-04-14T13:08:48.336Z,11.07
2023-04-14T13:11:16.149Z,13.95
2023-04-14T13:13:45.463Z,18.17
2023-04-14T13:16:16.970Z,8.73
2023-04-14T13:18:46.562Z,8.98
2023-04-14T13:21:13.401Z,12.45
2023-04-14T13:23:40.708Z,9.77
2023-04-14T13:26:07.319Z,12.27
2023-04-14T13:28:33.994Z,13.07
2023-04-14T13:31:00.966Z,10.35
2023-04-14T13:33:27.709Z,8.35
2023-04-14T13:35:55.727Z,23.25
2023-04-14T13:38:22.696Z,11.40
2023-04-14T13:40:49.303Z,8.77
2023-04-14T13:43:20.486Z,13.52
2023-04-14T13:45:47.388Z,9.10
2023-04-14T13:48:14.439Z,7.93
2023-04-14T13:50:41.147Z,11.38
2023-04-14T13:53:07.766Z,12.35
2023-04-14T13:55:36.002Z,9.82
2023-04-14T13:58:02.681Z,12.27
2023-04-14T14:00:29.780Z,9.13
2023-04-14T14:02:56.636Z,9.38
2023-04-14T14:05:24.121Z,13.45
2023-04-14T14:07:50.826Z,13.45
2023-04-14T14:10:17.447Z,11.02
2023-04-14T14:12:44.050Z,9.40
2023-04-14T14:15:11.323Z,13.55
2023-04-14T14:17:38.042Z,12.27
2023-04-14T14:20:04.962Z,17.95
2023-04-14T14:22:31.446Z,8.82
2023-04-14T14:25:10.802Z,9.18
2023-04-14T14:27:47.270Z,12.63
2023-04-14T14:30:14.016Z,11.73
2023-04-14T14:32:40.680Z,11.05
2023-04-14T14:35:08.149Z,8.48
2023-04-14T14:37:34.747Z,9.57
2023-04-14T14:40:01.306Z,10.52
2023-04-14T14:42:28.224Z,9.00
2023-04-14T14:44:54.926Z,8.82
2023-04-14T14:47:21.630Z,12.05
2023-04-14T14:49:57.103Z,21.17
2023-04-14T14:52:29.497Z,11.77
2023-04-14T14:54:55.991Z,14.02
2023-04-14T14:57:25.024Z,6.78
2023-04-14T14:59:53.816Z,10.30
2023-04-14T15:02:25.877Z,9.85
2023-04-14T15:04:55.583Z,9.80
2023-04-14T15:07:22.264Z,11.80
2023-04-14T15:09:49.883Z,11.02
2023-04-14T15:12:17.296Z,9.70
2023-04-14T15:14:44.693Z,11.10
2023-04-14T15:17:11.223Z,7.53
2023-04-14T15:19:38.236Z,10.75
2023-04-14T15:22:04.728Z,10.10
2023-04-14T15:24:31.253Z,8.57
2023-04-14T15:26:57.809Z,15.43
2023-04-14T15:29:26.968Z,10.25
2023-04-14T15:31:53.549Z,10.23
2023-04-14T15:34:21.325Z,12.25
2023-04-14T15:36:47.911Z,14.25
2023-04-14T15:39:14.445Z,10.30
2023-04-14T15:41:42.018Z,9.05
2023-04-14T15:44:08.542Z,7.95
2023-04-14T15:46:35.257Z,8.00
2023-04-14T15:49:01.868Z,10.75
2023-04-14T15:51:28.358Z,11.07
2023-04-14T15:53:54.885Z,8.77
2023-04-14T15:56:25.645Z,9.32
2023-04-14T15:58:54.395Z,8.85
2023-04-14T16:01:21.102Z,7.25
2023-04-14T16:03:49.210Z,9.88
2023-04-14T16:06:17.139Z,15.27
2023-04-14T16:08:43.701Z,8.27
2023-04-14T16:11:16.503Z,19.02
2023-04-14T16:13:46.374Z,11.25
2023-04-14T16:16:14.769Z,8.30
2023-04-14T16:18:41.554Z,8.55
2023-04-14T16:21:08.240Z,17.80
2023-04-14T16:23:36.071Z,12.48
2023-04-14T16:26:02.796Z,11.13
2023-04-14T16:28:30.362Z,11.38
2023-04-14T16:30:59.694Z,11.70
2023-04-14T16:33:26.371Z,10.95
2023-04-14T16:35:53.914Z,16.65
2023-04-14T16:38:20.486Z,9.23
2023-04-14T16:40:54.686Z,10.90
2023-04-14T16:43:21.352Z,13.82
2023-04-14T16:45:48.030Z,18.75
2023-04-14T16:48:14.798Z,13.00
2023-04-14T16:50:42.653Z,15.70
2023-04-14T16:53:09.318Z,11.60
2023-04-14T16:55:35.814Z,16.48
2023-04-14T16:58:03.080Z,14.88
2023-04-14T17:00:29.666Z,14.48
2023-04-14T17:02:56.616Z,17.23
2023-04-14T17:05:23.350Z,13.45
2023-04-14T17:07:50.024Z,15.70
2023-04-14T17:10:16.832Z,20.13
2023-04-14T17:12:43.450Z,18.50
2023-04-14T17:15:10.286Z,16.70
2023-04-14T17:17:36.959Z,13.68
2023-04-14T17:20:06.232Z,14.05
2023-04-14T17:22:34.524Z,18.35
2023-04-14T17:25:04.744Z,14.50
2023-04-14T17:27:31.922Z,14.57
2023-04-14T17:29:58.915Z,18.50
2023-04-14T17:32:26.473Z,12.90
2023-04-14T17:34:56.594Z,14.68
2023-04-14T17:37:23.622Z,13.55
2023-04-14T17:39:53.001Z,16.90
2023-04-14T17:42:19.618Z,14.45
2023-04-14T17:44:46.741Z,18.95
2023-04-14T17:47:16.834Z,18.70
2023-04-14T17:49:43.992Z,16.98
2023-04-14T17:52:20.718Z,13.57
2023-04-14T17:54:50.780Z,17.67
2023-04-14T17:57:19.820Z,17.88
2023-04-14T17:59:46.798Z,17.13
2023-04-14T18:02:16.437Z,17.00
2023-04-14T18:04:43.623Z,12.65
2023-04-14T18:07:10.453Z,15.25
2023-04-14T18:09:37.054Z,13.90
2023-04-14T18:12:03.601Z,15.10
2023-04-14T18:14:31.091Z,20.55
2023-04-14T18:16:58.364Z,19.58
2023-04-14T18:19:25.082Z,25.20
2023-04-14T18:21:51.709Z,17.95
2023-04-14T18:26:47.976Z,16.75
2023-04-14T18:29:14.992Z,17.80
2023-04-14T18:31:42.755Z,24.05
2023-04-14T18:34:11.731Z,22.33
2023-04-14T18:36:42.217Z,15.40
2023-04-14T18:39:09.644Z,19.38
2023-04-14T18:41:36.354Z,19.88
2023-04-14T18:44:04.377Z,17.55
2023-04-14T18:46:32.041Z,18.50
2023-04-14T18:49:04.238Z,21.77
2023-04-14T18:51:33.829Z,18.63
2023-04-14T18:54:03.874Z,17.65
2023-04-14T18:56:31.558Z,18.02
2023-04-14T18:58:58.286Z,20.80
2023-04-14T19:01:25.644Z,22.00
2023-04-14T19:03:54.396Z,22.80
2023-04-14T19:06:24.671Z,23.02
2023-04-14T19:08:51.993Z,22.33
2023-04-14T19:11:21.675Z,15.95
2023-04-14T19:13:48.319Z,21.05
2023-04-14T19:16:19.278Z,13.38
2023-04-14T19:18:46.139Z,8.23
2023-04-14T19:21:13.968Z,7.57
2023-04-14T19:23:41.096Z,9.35
2023-04-14T19:26:16.166Z,7.25
2023-04-14T19:28:50.848Z,8.80
2023-04-14T19:31:20.845Z,6.68
2023-04-14T19:33:49.212Z,8.55
2023-04-14T19:36:21.969Z,9.65
2023-04-14T19:38:51.786Z,8.65
2023-04-14T19:41:23.149Z,9.52
2023-04-14T19:43:52.044Z,7.65
2023-04-14T19:46:23.765Z,7.35
2023-04-14T19:48:54.602Z,4.32
2023-04-14T19:51:26.880Z,8.55
2023-04-14T19:56:20.109Z,11.50
2023-04-14T19:58:47.054Z,11.55
2023-04-14T20:01:13.687Z,8.25
2023-04-14T20:04:05.021Z,10.90
2023-04-14T20:06:33.288Z,13.57
2023-04-14T20:09:05.187Z,10.38
2023-04-14T20:13:59.438Z,11.38
2023-04-14T20:16:28.667Z,10.88
2023-04-14T20:18:55.532Z,10.63
2023-04-14T20:21:26.543Z,8.88
2023-04-14T20:23:56.067Z,7.82
2023-04-14T20:26:23.107Z,7.78
2023-04-14T20:28:52.682Z,12.20
2023-04-14T20:31:19.473Z,9.00
2023-04-14T20:33:46.165Z,9.18
2023-04-14T20:36:12.720Z,10.18
2023-04-14T20:38:39.420Z,9.00
2023-04-14T20:41:05.946Z,10.77
2023-04-14T20:43:34.287Z,8.98
2023-04-14T20:46:02.368Z,7.10
2023-04-14T20:48:30.656Z,6.03
2023-04-14T20:50:57.701Z,10.93
2023-04-14T20:53:26.742Z,7.97
2023-04-14T20:55:53.469Z,8.18
2023-04-14T20:58:20.558Z,7.88
2023-04-14T21:00:47.208Z,8.38
2023-04-14T21:03:14.343Z,6.43
2023-04-14T21:05:41.547Z,5.78
2023-04-14T21:08:09.935Z,8.23
2023-04-14T21:10:36.447Z,7.18
2023-04-14T21:15:28.995Z,9.93
2023-04-14T21:16:10.011Z,8.30
2023-04-14T21:18:37.010Z,9.93
2023-04-14T21:21:04.873Z,6.40
2023-04-14T21:23:31.583Z,8.82
2023-04-14T21:25:59.862Z,8.00
2023-04-14T21:28:27.367Z,10.95
2023-04-14T21:31:01.152Z,7.07
2023-04-14T21:33:28.294Z,8.45
2023-04-14T21:35:55.529Z,8.18
2023-04-14T21:38:22.628Z,9.23
2023-04-14T21:40:50.039Z,7.47
2023-04-14T21:43:17.345Z,7.78
2023-04-14T21:45:45.426Z,8.57
2023-04-14T21:48:12.792Z,12.35
2023-04-14T21:50:39.701Z,9.65
2023-04-14T21:53:06.337Z,7.45
2023-04-14T21:55:33.023Z,9.38
2023-04-14T21:58:01.308Z,11.40
2023-04-14T22:00:27.926Z,15.48
2023-04-14T22:02:54.673Z,11.80
2023-04-14T22:05:21.367Z,7.60
2023-04-14T22:07:48.102Z,11.43
2023-04-14T22:10:14.712Z,8.18
2023-04-14T22:12:44.723Z,11.52
2023-04-14T22:15:11.389Z,12.85
2023-04-14T22:17:38.925Z,7.30
2023-04-14T22:20:06.398Z,9.35
2023-04-14T22:22:33.746Z,9.82
2023-04-14T22:25:01.871Z,8.95
2023-04-14T22:27:28.438Z,9.45
2023-04-14T22:32:17.091Z,13.20
2023-04-14T22:34:43.675Z,10.77
2023-04-14T22:37:10.313Z,12.27
2023-04-14T22:39:37.954Z,12.93
2023-04-14T22:42:04.439Z,18.77
2023-04-14T22:44:31.064Z,12.25
2023-04-14T22:46:57.797Z,12.75
2023-04-14T22:49:24.634Z,12.43
2023-04-14T22:51:51.781Z,9.77
2023-04-14T22:54:18.499Z,9.48
2023-04-14T22:56:45.033Z,11.77
2023-04-14T22:59:11.648Z,10.95
2023-04-14T23:01:38.194Z,9.05
2023-04-14T23:04:05.340Z,16.02
2023-04-14T23:06:31.980Z,13.30
2023-04-14T23:08:58.543Z,11.20
2023-04-14T23:11:25.110Z,12.15
2023-04-14T23:13:51.770Z,11.68
2023-04-14T23:16:20.238Z,12.50
2023-04-14T23:18:52.262Z,12.75
2023-04-14T23:21:22.516Z,13.55
2023-04-14T23:23:55.198Z,10.30
2023-04-14T23:26:23.933Z,8.85
2023-04-14T23:28:50.577Z,11.23
2023-04-14T23:31:17.922Z,12.02
2023-04-14T23:33:45.363Z,11.73
2023-04-14T23:36:12.434Z,11.95
2023-04-14T23:38:39.346Z,15.30
2023-04-14T23:41:05.863Z,14.20
2023-04-14T23:43:35.700Z,11.40
2023-04-14T23:46:02.562Z,10.50
2023-04-14T23:48:29.213Z,10.77
2023-04-14T23:50:59.245Z,13.23
2023-04-14T23:53:31.096Z,15.32
2023-04-14T23:55:57.721Z,11.00
2023-04-14T23:58:26.912Z,11.15
